This is the latest recevied weather packets stored in our database for station/object S50APT-10. If no packets are shown the sender has not sent any weather packets the latest 10 day(s).
| Time | Temp. | Humidity | Pressure | Rain* | Wind** | Luminosity | Snow |
|---|---|---|---|---|---|---|---|
| 1778055468 | 20° C | 47% | 1013.5 hPa | - | - | - | - |
| 1778054567 | 20° C | 48% | 1013.6 hPa | - | - | - | - |
| 1778053667 | 19.44° C | 50% | 1013.3 hPa | - | - | - | - |
| 1778052798 | 18.89° C | 53% | 1013.3 hPa | - | - | - | - |
| 1778052766 | 18.89° C | 53% | 1013.3 hPa | - | - | - | - |
| 1778051865 | 18.89° C | 54% | 1013.3 hPa | - | - | - | - |
| 1778050965 | 17.78° C | 55% | 1013.5 hPa | - | - | - | - |
| 1778050064 | 18.33° C | 54% | 1013.5 hPa | - | - | - | - |
| 1778049163 | 16.67° C | 59% | 1013.4 hPa | - | - | - | - |
| 1778048262 | 16.67° C | 59% | 1013.6 hPa | - | - | - | - |
| 1778047362 | 16.11° C | 62% | 1013.7 hPa | - | - | - | - |
| 1778046461 | 16.67° C | 61% | 1013.6 hPa | - | - | - | - |
| 1778045560 | 15° C | 65% | 1013.6 hPa | - | - | - | - |
| 1778044659 | 14.44° C | 67% | 1013.5 hPa | - | - | - | - |
| 1778043758 | 13.89° C | 69% | 1013.4 hPa | - | - | - | - |
| 1778042858 | 13.89° C | 70% | 1013.4 hPa | - | - | - | - |
| 1778041957 | 13.33° C | 72% | 1013.2 hPa | - | - | - | - |
| 1778041057 | 12.78° C | 72% | 1013.2 hPa | - | - | - | - |
| 1778040156 | 12.78° C | 73% | 1013.1 hPa | - | - | - | - |
| 1778039256 | 12.78° C | 73% | 1013.1 hPa | - | - | - | - |
| 1778038356 | 12.78° C | 74% | 1013 hPa | - | - | - | - |
| 1778037455 | 12.78° C | 73% | 1012.8 hPa | - | - | - | - |
| 1778036555 | 12.78° C | 73% | 1012.9 hPa | - | - | - | - |
| 1778035655 | 13.33° C | 71% | 1013.1 hPa | - | - | - | - |
| 1778034754 | 13.33° C | 71% | 1012.7 hPa | - | - | - | - |
* Rain since midnight (hover to see other rain measurements)
** Current wind speed in m/s (hover to see current wind gust speed)